Yellow Mule RAWS (NWS)

Jump to table bottom
Date/Time Wind Direction Wind Speed knots Wind Gust knots RH % Accumulated Precip Inches Air Temp Fahrenheit
2023-02-03 02:04 S 9 16 62 0.18 16
2023-02-03 01:04 S 7 16 56 0.18 18
2023-02-03 00:04 S 8 17 51 0.18 20
2023-02-02 23:04 S 8 10 62 0.18 16
2023-02-02 22:04 S 8 12 60 0.18 17
2023-02-02 21:04 S 7 10 70 0.18 14
2023-02-02 20:04 SSW 8 10 56 0.18 19
2023-02-02 19:04 S 9 14 53 0.18 20
2023-02-02 18:04 S 9 18 51 0.18 21
2023-02-02 17:04 SSW 10 17 44 0.18 25
2023-02-02 16:04 SSW 8 14 42 0.18 24
2023-02-02 15:04 SW 10 19 35 0.18 25
2023-02-02 14:04 SSW 12 20 47 0.18 23
2023-02-02 13:04 SSW 13 18 48 0.18 22
2023-02-02 12:04 SSW 11 18 51 0.18 21
2023-02-02 11:04 SSW 9 22 63 0.18 17
2023-02-02 10:04 SSW 14 19 52 0.18 18
2023-02-02 09:04 SSW 11 18 59 0.18 15
2023-02-02 08:04 SW 10 17 55 0.18 16
2023-02-02 07:04 SSW 14 17 55 0.18 16
2023-02-02 06:04 SSW 16 20 60 0.18 16
2023-02-02 05:04 SSW 14 19 67 0.18 14
2023-02-02 04:04 SSW 10 14 71 0.18 14
2023-02-02 03:04 SSW 5 17 80 0.18 9
2023-02-02 02:04 SSW 11 19 74 0.18 15
2023-02-02 01:04 SW 16 20 76 0.18 16
2023-02-02 00:04 SSW 14 22 78 0.18 17
2023-02-01 23:04 SSW 15 20 80 0.18 17
2023-02-01 22:04 SSW 10 16 84 0.18 17
2023-02-01 21:04 S 8 23 90 0.18 16
2023-02-01 20:04 SSW 12 20 87 0.18 16
2023-02-01 19:04 SSW 14 22 86 0.18 16
2023-02-01 18:04 SSW 13 19 87 0.18 16
2023-02-01 17:04 SSW 15 22 88 0.18 17
2023-02-01 16:04 SSW 13 23 89 0.18 17
2023-02-01 15:04 SSW 20 29 89 0.18 17
2023-02-01 14:04 SSW 19 27 89 0.18 16
2023-02-01 13:04 SSW 19 30 89 0.18 16
2023-02-01 12:04 SSW 20 26 89 0.18 15
2023-02-01 11:04 SSW 15 22 88 0.18 13
2023-02-01 10:04 SSW 15 26 87 0.18 11
2023-02-01 09:04 SSW 17 26 88 0.18 12
2023-02-01 08:04 SSW 11 25 86 0.18 9
2023-02-01 07:04 SSW 16 23 87 0.18 10
2023-02-01 06:04 SSW 13 20 87 0.18 10
2023-02-01 05:04 SSW 13 22 87 0.18 10
2023-02-01 04:04 SSW 11 22 87 0.18 10
2023-02-01 03:04 SSW 12 19 84 0.18 4
2023-02-01 02:04 SSW 6 19 83 0.18 5
2023-02-01 01:04 SSW 17 21 87 0.18 10